createdAt,value
2023-07-24T00:00:36.885Z,70.53
2023-07-24T00:05:36.386Z,70.43
2023-07-24T00:10:36.373Z,71.23
2023-07-24T00:15:36.322Z,72.94
2023-07-24T00:20:36.322Z,74.18
2023-07-24T00:25:36.301Z,75.18
2023-07-24T00:30:36.329Z,75.31
2023-07-24T00:35:36.225Z,76.76
2023-07-24T00:40:36.229Z,76.76
2023-07-24T00:45:36.221Z,76.96
2023-07-24T00:50:36.148Z,76.96
2023-07-24T00:55:36.135Z,77.29
2023-07-24T01:00:36.189Z,77.09
2023-07-24T01:05:36.076Z,77.50
2023-07-24T01:10:36.028Z,78.03
2023-07-24T01:15:36.009Z,78.34
2023-07-24T01:20:35.984Z,78.74
2023-07-24T01:25:35.967Z,79.08
2023-07-24T01:30:35.977Z,79.44
2023-07-24T01:35:35.891Z,79.24
2023-07-24T01:40:35.870Z,78.54
2023-07-24T01:45:35.836Z,78.34
2023-07-24T01:50:35.816Z,78.20
2023-07-24T01:55:35.789Z,78.30
2023-07-24T02:00:35.765Z,78.40
2023-07-24T02:05:35.751Z,78.50
2023-07-24T02:10:35.711Z,78.50
2023-07-24T02:15:35.675Z,78.50
2023-07-24T02:20:35.644Z,78.97
2023-07-24T02:25:35.624Z,79.47
2023-07-24T02:30:35.613Z,79.87
2023-07-24T02:35:35.574Z,80.07
2023-07-24T02:40:35.556Z,80.57
2023-07-24T02:45:35.573Z,80.88
2023-07-24T02:50:35.533Z,81.18
2023-07-24T02:55:35.501Z,81.72
2023-07-24T03:00:35.504Z,82.22
2023-07-24T03:05:35.442Z,82.42
2023-07-24T03:10:35.431Z,82.52
2023-07-24T03:15:35.440Z,82.18
2023-07-24T03:20:35.364Z,82.18
2023-07-24T03:25:35.337Z,81.98
2023-07-24T03:30:35.379Z,81.88
2023-07-24T03:35:35.271Z,81.88
2023-07-24T03:40:35.254Z,81.58
2023-07-24T03:45:35.244Z,81.58
2023-07-24T03:50:35.215Z,81.27
2023-07-24T03:55:35.326Z,81.14
2023-07-24T04:00:35.275Z,80.83
2023-07-24T04:05:35.116Z,80.54
2023-07-24T04:10:35.093Z,80.04
2023-07-24T04:15:35.068Z,79.73
2023-07-24T04:20:35.059Z,79.29
2023-07-24T04:25:35.038Z,78.89
2023-07-24T04:30:35.041Z,78.89
2023-07-24T04:35:34.988Z,79.73
2023-07-24T04:40:34.952Z,80.04
2023-07-24T04:45:34.906Z,80.17
2023-07-24T04:50:34.883Z,80.47
2023-07-24T04:55:34.853Z,80.37
2023-07-24T05:00:34.833Z,80.77
2023-07-24T05:05:34.816Z,81.07
2023-07-24T05:10:34.800Z,81.18
2023-07-24T05:15:34.777Z,81.18
2023-07-24T05:20:34.750Z,80.83
2023-07-24T05:25:34.732Z,79.39
2023-07-24T05:30:34.770Z,78.75
2023-07-24T05:35:35.096Z,78.75
2023-07-24T05:40:34.964Z,77.81
2023-07-24T05:45:34.620Z,76.98
2023-07-24T05:50:34.603Z,76.34
2023-07-24T05:55:34.598Z,74.16
2023-07-24T06:00:34.592Z,72.69
2023-07-24T06:05:34.533Z,71.19
2023-07-24T06:10:34.546Z,71.42
2023-07-24T06:15:34.641Z,71.06
2023-07-24T06:20:34.449Z,70.96
2023-07-24T06:25:34.441Z,70.66
2023-07-24T06:30:34.371Z,69.46
2023-07-24T06:35:34.372Z,69.93
2023-07-24T06:40:34.445Z,69.13
2023-07-24T06:45:34.441Z,68.36
2023-07-24T06:50:34.337Z,67.73
2023-07-24T06:55:34.291Z,66.43
2023-07-24T07:00:34.264Z,65.83
2023-07-24T07:05:34.204Z,65.01
2023-07-24T07:10:34.193Z,63.95
2023-07-24T07:15:34.252Z,59.01
2023-07-24T07:20:34.144Z,51.72
2023-07-24T07:25:34.100Z,55.96
2023-07-24T07:30:34.051Z,58.02
2023-07-24T07:35:34.016Z,61.24
2023-07-24T07:40:34.043Z,62.89
2023-07-24T07:45:33.965Z,65.91
2023-07-24T07:50:33.957Z,63.52
2023-07-24T07:55:33.941Z,63.12
2023-07-24T08:00:33.936Z,62.37
2023-07-24T08:05:33.910Z,60.64
2023-07-24T08:10:33.927Z,58.91
2023-07-24T08:15:33.878Z,54.35
2023-07-24T08:20:33.868Z,52.95
2023-07-24T08:25:33.850Z,50.12
2023-07-24T08:30:33.840Z,50.02
2023-07-24T08:35:33.777Z,48.61
2023-07-24T08:40:33.777Z,47.09
2023-07-24T08:45:33.719Z,45.16
2023-07-24T08:50:33.697Z,46.69
2023-07-24T08:55:33.682Z,48.69
2023-07-24T09:00:33.697Z,46.23
2023-07-24T09:05:33.641Z,44.62
2023-07-24T09:10:33.661Z,46.13
2023-07-24T09:15:33.591Z,44.49
2023-07-24T09:20:33.594Z,43.18
2023-07-24T09:25:33.542Z,40.03
2023-07-24T09:30:33.563Z,39.54
2023-07-24T09:35:33.492Z,39.54
2023-07-24T09:40:33.544Z,40.58
2023-07-24T09:45:36.383Z,37.91
2023-07-24T09:50:33.476Z,37.55
2023-07-24T09:55:33.434Z,38.21
2023-07-24T10:00:33.438Z,41.59
2023-07-24T10:05:33.399Z,37.95
2023-07-24T10:10:33.376Z,37.32
2023-07-24T10:15:33.352Z,39.76
2023-07-24T10:20:33.344Z,42.52
2023-07-24T10:25:33.375Z,41.43
2023-07-24T10:30:34.629Z,43.32
2023-07-24T10:35:33.351Z,43.64
2023-07-24T10:40:33.234Z,41.49
2023-07-24T10:45:33.327Z,40.11
2023-07-24T10:50:33.181Z,38.55
2023-07-24T10:55:33.142Z,37.69
2023-07-24T11:00:33.152Z,38.29
2023-07-24T11:05:33.113Z,39.43
2023-07-24T11:10:33.188Z,35.79
2023-07-24T11:15:33.082Z,36.49
2023-07-24T11:20:33.048Z,34.55
2023-07-24T11:25:33.035Z,38.17
2023-07-24T11:30:33.010Z,35.38
2023-07-24T11:35:32.968Z,35.41
2023-07-24T11:40:33.010Z,38.66
2023-07-24T11:45:32.929Z,36.07
2023-07-24T11:50:32.856Z,40.74
2023-07-24T11:55:32.838Z,44.14
2023-07-24T12:00:33.717Z,44.36
2023-07-24T12:05:32.779Z,38.64
2023-07-24T12:10:32.781Z,37.82
2023-07-24T12:15:32.877Z,36.46
2023-07-24T12:20:32.770Z,37.66
2023-07-24T12:25:34.375Z,39.98
2023-07-24T12:30:32.683Z,35.43
2023-07-24T12:35:32.840Z,36.57
2023-07-24T12:40:32.648Z,34.00
2023-07-24T12:45:32.582Z,36.37
2023-07-24T12:50:32.620Z,40.47
2023-07-24T12:55:32.553Z,43.60
2023-07-24T13:00:32.605Z,43.94
2023-07-24T13:05:32.534Z,44.24
2023-07-24T13:10:32.461Z,47.44
2023-07-24T13:15:32.422Z,52.83
2023-07-24T13:20:32.418Z,54.67
2023-07-24T13:25:32.356Z,56.13
2023-07-24T13:30:32.356Z,56.95
2023-07-24T13:35:32.286Z,57.18
2023-07-24T13:40:32.259Z,61.18
2023-07-24T13:45:32.242Z,66.27
2023-07-24T13:50:32.406Z,68.93
2023-07-24T13:55:32.206Z,68.50
2023-07-24T14:00:32.166Z,66.51
2023-07-24T14:05:32.191Z,66.67
2023-07-24T14:10:32.110Z,65.22
2023-07-24T14:15:32.082Z,65.32
2023-07-24T14:20:32.036Z,66.51
2023-07-24T14:25:32.052Z,64.62
2023-07-24T14:30:31.992Z,64.95
2023-07-24T14:35:31.950Z,63.60
2023-07-24T14:40:31.968Z,62.85
2023-07-24T14:45:31.913Z,58.95
2023-07-24T14:50:31.876Z,58.18
2023-07-24T14:55:31.843Z,55.75
2023-07-24T15:00:31.800Z,53.67
2023-07-24T15:05:31.762Z,51.82
2023-07-24T15:10:31.738Z,52.19
2023-07-24T15:15:31.702Z,51.03
2023-07-24T15:20:31.679Z,51.05
2023-07-24T15:25:31.650Z,51.15
2023-07-24T15:30:31.609Z,48.95
2023-07-24T15:35:31.589Z,46.33
2023-07-24T15:40:31.556Z,47.25
2023-07-24T15:45:31.577Z,49.47
2023-07-24T15:50:31.492Z,48.50
2023-07-24T15:55:31.486Z,48.01
2023-07-24T16:00:31.425Z,46.97
2023-07-24T16:05:31.385Z,47.05
2023-07-24T16:10:31.370Z,46.66
2023-07-24T16:20:31.274Z,48.48
2023-07-24T16:25:31.297Z,49.91
2023-07-24T16:30:31.623Z,50.43
2023-07-24T16:35:31.199Z,51.35
2023-07-24T16:40:32.169Z,51.67
2023-07-24T16:45:36.682Z,53.66
2023-07-24T16:50:31.129Z,56.68
2023-07-24T16:55:31.085Z,61.30
2023-07-24T17:00:31.052Z,65.70
2023-07-24T17:05:31.052Z,70.83
2023-07-24T17:10:30.981Z,74.69
2023-07-24T17:15:31.019Z,87.90
2023-07-24T17:20:30.905Z,98.94
2023-07-24T17:25:30.927Z,99.99
2023-07-24T17:30:31.071Z,99.99
2023-07-24T17:35:31.075Z,99.99
2023-07-24T17:40:30.786Z,99.99
2023-07-24T17:45:30.791Z,99.99
2023-07-24T17:50:30.720Z,99.99
2023-07-24T17:55:30.718Z,99.99
2023-07-24T18:00:30.681Z,99.99
2023-07-24T18:05:30.663Z,99.99
2023-07-24T18:10:30.601Z,99.99
2023-07-24T18:15:30.599Z,99.99
2023-07-24T18:20:30.552Z,99.99
2023-07-24T18:25:30.495Z,99.99
2023-07-24T18:30:30.502Z,99.99
2023-07-24T18:35:30.502Z,99.99
2023-07-24T18:40:30.401Z,99.99
2023-07-24T18:45:30.419Z,99.99
2023-07-24T18:50:30.389Z,99.99
2023-07-24T18:55:30.351Z,99.99
2023-07-24T19:00:30.782Z,99.99
2023-07-24T19:05:30.316Z,99.99
2023-07-24T19:10:30.252Z,99.99
2023-07-24T19:15:30.216Z,99.99
2023-07-24T19:20:30.185Z,99.99
2023-07-24T19:25:30.141Z,99.99
2023-07-24T19:30:30.122Z,99.99
2023-07-24T19:35:30.077Z,99.99
2023-07-24T19:40:30.038Z,99.99
2023-07-24T19:45:30.008Z,99.99
2023-07-24T19:50:30.000Z,99.99
2023-07-24T19:55:29.968Z,99.99
2023-07-24T20:00:32.341Z,99.99
2023-07-24T20:05:29.918Z,99.99
2023-07-24T20:10:29.856Z,99.99
2023-07-24T20:15:29.933Z,99.99
2023-07-24T20:20:29.780Z,99.99
2023-07-24T20:25:29.765Z,99.99
2023-07-24T20:30:29.740Z,99.99
2023-07-24T20:35:29.709Z,99.99
2023-07-24T20:40:29.682Z,99.99
2023-07-24T20:45:29.659Z,99.99
2023-07-24T20:50:29.634Z,99.99
2023-07-24T20:55:29.613Z,99.99
2023-07-24T21:00:29.584Z,99.99
2023-07-24T21:05:29.618Z,99.99
2023-07-24T21:10:29.532Z,99.99
2023-07-24T21:15:29.512Z,99.99
2023-07-24T21:20:29.497Z,99.99
2023-07-24T21:25:29.490Z,99.99
2023-07-24T21:30:29.470Z,99.99
2023-07-24T21:35:29.455Z,99.99
2023-07-24T21:40:29.448Z,99.99
2023-07-24T21:45:29.417Z,99.99
2023-07-24T21:50:29.401Z,99.99
2023-07-24T21:55:29.389Z,99.99
2023-07-24T22:00:29.362Z,99.99
2023-07-24T22:05:29.344Z,99.99
2023-07-24T22:10:29.340Z,99.99
2023-07-24T22:15:29.348Z,99.99
2023-07-24T22:20:39.841Z,99.99
2023-07-24T22:25:29.258Z,99.99
2023-07-24T22:30:29.231Z,99.99
2023-07-24T22:35:29.227Z,99.99
2023-07-24T22:40:29.187Z,99.99
2023-07-24T22:45:29.164Z,99.99
2023-07-24T22:50:29.139Z,99.99
2023-07-24T22:55:29.136Z,99.99
2023-07-24T23:00:29.087Z,99.99
2023-07-24T23:05:29.054Z,99.99
2023-07-24T23:10:29.035Z,99.99
2023-07-24T23:15:29.058Z,99.99
2023-07-24T23:20:28.988Z,99.99
2023-07-24T23:25:28.971Z,99.99
2023-07-24T23:30:29.001Z,99.99
2023-07-24T23:35:28.998Z,99.99
2023-07-24T23:40:28.935Z,99.99
2023-07-24T23:45:28.893Z,99.99
2023-07-24T23:50:28.860Z,99.99
2023-07-24T23:55:28.828Z,99.99
